Time;durP1;ratioP1;P1;durP2;ratioP2;P2;SDS_P1;SDS_P2;PMS_P1;PMS_P2;Temp;Humidity;BMP_temperature;BMP_pressure;BME280_temperature;BME280_humidity;BME280_pressure;Samples;Min_cycle;Max_cycle;Signal;HPM_P1;HPM_P2
2022/08/18 00:01:48;;;;;;;13.93;6.43;;;24.40;86.20;;;;;;5062048;28;20563;-77
2022/08/18 00:04:17;;;;;;;8.17;6.57;;;24.40;86.40;;;;;;5061264;28;20294;-78
2022/08/18 00:07:02;;;;;;;9.37;6.47;;;24.30;86.50;;;;;;5068916;28;20237;-79
2022/08/18 00:09:29;;;;;;;10.00;6.23;;;24.30;86.50;;;;;;5061970;28;20209;-77
2022/08/18 00:12:02;;;;;;;11.47;6.13;;;24.20;86.70;;;;;;5054212;28;20204;-79
2022/08/18 00:14:29;;;;;;;11.03;6.37;;;24.10;87.00;;;;;;5061160;28;20310;-77
2022/08/18 00:16:58;;;;;;;8.80;5.70;;;24.10;87.30;;;;;;5060147;28;20291;-80
2022/08/18 00:19:26;;;;;;;9.60;6.53;;;24.10;87.50;;;;;;5062806;28;20237;-77
2022/08/18 00:22:16;;;;;;;8.77;5.80;;;24.00;87.60;;;;;;5078043;28;20301;-77
2022/08/18 00:24:46;;;;;;;6.50;5.27;;;24.00;87.70;;;;;;5063712;28;20210;-78
2022/08/18 00:27:20;;;;;;;9.80;6.20;;;24.00;87.70;;;;;;5058238;28;20227;-77
2022/08/18 00:29:51;;;;;;;7.73;6.93;;;24.00;87.90;;;;;;5063629;28;20198;-77
2022/08/18 00:32:24;;;;;;;7.60;6.60;;;24.00;88.10;;;;;;5060036;28;20210;-77
2022/08/18 00:34:53;;;;;;;7.63;6.93;;;23.90;88.90;;;;;;5058632;28;20226;-78
2022/08/18 00:37:22;;;;;;;10.20;6.73;;;23.90;88.40;;;;;;5063815;28;20555;-77
2022/08/18 00:39:51;;;;;;;9.50;5.93;;;23.80;88.80;;;;;;5053064;28;20215;-77
2022/08/18 00:42:25;;;;;;;5.57;5.07;;;23.80;88.90;;;;;;5056922;28;20218;-77
2022/08/18 00:44:58;;;;;;;12.87;5.37;;;23.80;89.00;;;;;;5042583;28;20202;-77
2022/08/18 00:47:28;;;;;;;11.00;5.20;;;23.80;89.10;;;;;;5056626;28;20227;-79
2022/08/18 00:50:27;;;;;;;8.83;5.60;;;23.80;89.10;;;;;;5057353;28;20205;-78
2022/08/18 00:53:04;;;;;;;9.53;5.30;;;23.70;89.20;;;;;;5060569;28;20210;-78
2022/08/18 00:55:32;;;;;;;9.47;5.30;;;23.70;90.00;;;;;;5057589;28;20297;-77
2022/08/18 00:58:10;;;;;;;8.83;6.13;;;23.70;89.20;;;;;;5058584;28;20546;-77
2022/08/18 01:00:37;;;;;;;6.43;5.80;;;23.70;89.10;;;;;;5055609;28;20301;-78
2022/08/18 01:03:11;;;;;;;12.03;5.63;;;23.70;89.00;;;;;;5063864;28;20199;-79
2022/08/18 01:05:44;;;;;;;5.33;4.83;;;23.70;89.00;;;;;;5040853;28;20236;-78
2022/08/18 01:08:14;;;;;;;6.60;5.10;;;23.70;88.90;;;;;;5061287;28;20203;-78
2022/08/18 01:10:44;;;;;;;9.43;5.10;;;23.80;88.80;;;;;;5061561;28;20202;-77
2022/08/18 01:13:12;;;;;;;7.57;4.93;;;23.70;88.80;;;;;;5062852;28;20290;-79
2022/08/18 01:15:39;;;;;;;6.80;5.07;;;23.70;88.80;;;;;;5060068;28;20285;-77
2022/08/18 01:24:11;;;;;;;8.47;6.50;;;23.70;89.20;;;;;;5078802;28;20278;-79
2022/08/18 01:26:48;;;;;;;8.97;5.93;;;23.60;89.20;;;;;;5063489;28;20229;-78
2022/08/18 01:29:18;;;;;;;7.17;6.33;;;23.60;89.30;;;;;;5064798;28;20285;-77
2022/08/18 01:31:54;;;;;;;10.47;6.40;;;23.60;89.30;;;;;;5053158;28;20206;-77
2022/08/18 01:34:25;;;;;;;8.23;5.97;;;23.60;89.20;;;;;;5064095;28;20209;-77
2022/08/18 01:36:53;;;;;;;7.77;6.53;;;23.60;89.20;;;;;;5061584;28;20195;-77
2022/08/18 01:39:21;;;;;;;12.33;5.93;;;23.60;89.40;;;;;;5060695;28;20209;-77
2022/08/18 01:42:09;;;;;;;7.67;5.23;;;23.60;89.50;;;;;;5043668;28;20234;-77
2022/08/18 01:44:40;;;;;;;10.47;6.40;;;23.60;89.50;;;;;;5058613;28;20187;-78
2022/08/18 01:47:09;;;;;;;7.13;5.63;;;23.60;89.40;;;;;;5063529;28;20226;-78
2022/08/18 01:49:41;;;;;;;7.77;5.60;;;23.60;89.40;;;;;;5061234;28;20199;-78
2022/08/18 01:52:16;;;;;;;12.23;6.43;;;23.70;89.40;;;;;;5065145;28;20220;-77
2022/08/18 01:54:44;;;;;;;7.37;5.67;;;23.70;89.40;;;;;;5064477;28;20198;-78
2022/08/18 01:57:14;;;;;;;6.73;5.63;;;23.80;89.10;;;;;;5057685;28;20225;-78
2022/08/18 01:59:41;;;;;;;9.37;6.63;;;23.80;88.90;;;;;;5060363;28;20216;-77
2022/08/18 02:02:14;;;;;;;8.17;6.80;;;23.80;88.90;;;;;;5064329;28;20653;-77
2022/08/18 02:04:45;;;;;;;11.50;6.20;;;23.80;88.80;;;;;;5052867;28;20205;-78
2022/08/18 02:07:13;;;;;;;8.77;6.40;;;23.80;88.70;;;;;;5065781;28;20230;-77
2022/08/18 02:09:42;;;;;;;10.00;6.87;;;23.90;88.80;;;;;;5055772;28;20195;-78
2022/08/18 02:12:10;;;;;;;12.70;6.37;;;23.90;88.70;;;;;;5059322;28;20215;-77
2022/08/18 02:14:37;;;;;;;11.03;6.97;;;23.90;88.50;;;;;;5060332;28;20216;-78
2022/08/18 02:17:07;;;;;;;11.27;7.50;;;24.00;88.40;;;;;;5058815;28;20283;-78
2022/08/18 02:19:43;;;;;;;8.93;7.83;;;24.00;88.40;;;;;;5056913;28;20282;-77
2022/08/18 02:22:16;;;;;;;8.87;7.87;;;24.10;88.20;;;;;;5059970;28;20229;-77
2022/08/18 02:24:44;;;;;;;10.67;7.77;;;24.10;87.70;;;;;;5057805;28;20203;-77
2022/08/18 02:27:12;;;;;;;11.87;9.70;;;24.10;87.60;;;;;;5059377;28;20279;-78
2022/08/18 02:29:40;;;;;;;12.33;8.23;;;24.10;87.60;;;;;;5027054;28;20546;-77
2022/08/18 02:32:07;;;;;;;12.43;7.97;;;24.10;87.60;;;;;;5058562;28;20282;-78
2022/08/18 02:34:35;;;;;;;8.23;7.33;;;24.10;87.70;;;;;;5054487;28;20198;-78
2022/08/18 02:37:03;;;;;;;10.73;8.10;;;24.20;87.80;;;;;;5070175;28;20219;-78
2022/08/18 02:39:33;;;;;;;11.47;8.20;;;24.10;87.90;;;;;;5053788;28;20211;-78
2022/08/18 02:42:01;;;;;;;8.83;7.03;;;24.20;88.20;;;;;;5055479;28;20521;-78
2022/08/18 02:44:28;;;;;;;9.83;7.17;;;24.20;88.40;;;;;;5051564;28;20199;-77
2022/08/18 02:46:55;;;;;;;9.10;7.13;;;24.20;88.60;;;;;;5052746;28;20194;-78
2022/08/18 02:49:24;;;;;;;11.87;7.30;;;24.20;88.80;;;;;;5053451;28;20639;-77
2022/08/18 02:51:52;;;;;;;7.60;5.60;;;24.20;88.80;;;;;;5053538;28;20274;-79
2022/08/18 02:54:22;;;;;;;7.50;6.17;;;24.20;88.90;;;;;;5053070;28;20225;-77
2022/08/18 02:56:58;;;;;;;15.90;7.17;;;24.20;88.90;;;;;;5055098;28;20241;-81
2022/08/18 02:59:26;;;;;;;12.37;7.40;;;24.10;88.60;;;;;;5051563;28;20202;-85
2022/08/18 03:01:57;;;;;;;11.60;7.57;;;24.10;88.70;;;;;;5048676;28;20199;-84
2022/08/18 03:04:27;;;;;;;17.73;7.83;;;24.00;88.80;;;;;;5065651;28;20195;-83
2022/08/18 03:07:00;;;;;;;20.20;9.13;;;23.90;89.30;;;;;;5048799;28;20651;-82
2022/08/18 03:09:31;;;;;;;12.67;8.60;;;23.80;90.00;;;;;;5044696;28;20241;-80
2022/08/18 03:11:58;;;;;;;10.27;8.80;;;23.70;90.30;;;;;;5053255;28;20616;-81
2022/08/18 03:14:26;;;;;;;12.10;8.97;;;23.60;90.60;;;;;;5055635;28;20805;-81
2022/08/18 03:16:53;;;;;;;11.57;8.50;;;23.50;90.90;;;;;;5055013;28;20289;-81
2022/08/18 03:19:27;;;;;;;11.70;9.27;;;23.50;91.30;;;;;;5066006;28;20199;-79
2022/08/18 03:21:58;;;;;;;13.63;9.40;;;23.40;91.60;;;;;;5052879;28;20194;-80
2022/08/18 03:24:30;;;;;;;10.63;9.03;;;23.30;91.90;;;;;;5038717;28;20267;-81
2022/08/18 03:27:00;;;;;;;15.43;11.30;;;23.20;92.10;;;;;;5037154;28;20207;-83
2022/08/18 03:29:27;;;;;;;16.67;10.93;;;23.20;92.30;;;;;;5049116;28;20237;-80
2022/08/18 03:32:00;;;;;;;13.93;11.43;;;23.10;92.60;;;;;;5045930;28;20293;-80
2022/08/18 03:34:29;;;;;;;14.80;11.17;;;23.10;92.80;;;;;;5059325;28;20290;-83
2022/08/18 03:36:56;;;;;;;15.87;12.53;;;23.10;92.80;;;;;;5054436;28;20210;-81
2022/08/18 03:39:24;;;;;;;15.17;13.03;;;23.00;92.90;;;;;;5034766;28;20203;-80
2022/08/18 03:41:55;;;;;;;20.90;13.93;;;23.00;92.90;;;;;;5050697;28;20209;-80
2022/08/18 03:44:32;;;;;;;15.37;13.80;;;23.00;93.00;;;;;;5031686;28;20237;-81
2022/08/18 03:47:02;;;;;;;20.23;13.40;;;23.10;93.10;;;;;;5052157;28;20633;-81
2022/08/18 03:49:32;;;;;;;15.87;12.60;;;23.10;93.00;;;;;;5046682;28;20587;-81
2022/08/18 03:52:00;;;;;;;15.37;11.50;;;23.10;93.00;;;;;;5041066;28;20241;-80
2022/08/18 03:54:30;;;;;;;12.47;11.17;;;23.10;93.10;;;;;;5066702;28;20198;-78
2022/08/18 03:56:59;;;;;;;11.93;9.90;;;23.10;93.20;;;;;;5051513;28;20190;-82
2022/08/18 03:59:29;;;;;;;13.23;10.23;;;23.10;93.20;;;;;;5053696;28;20209;-81
2022/08/18 04:01:56;;;;;;;17.57;10.47;;;23.10;93.20;;;;;;5052151;28;20245;-84
2022/08/18 04:04:26;;;;;;;15.33;10.43;;;23.10;93.30;;;;;;5038342;28;20210;-81
2022/08/18 04:07:03;;;;;;;14.70;11.07;;;23.10;93.20;;;;;;5045413;28;20229;-81
2022/08/18 04:09:32;;;;;;;14.80;11.33;;;23.10;93.30;;;;;;5052845;28;20229;-81
2022/08/18 04:12:10;;;;;;;17.77;11.90;;;23.20;93.30;;;;;;5054840;28;20193;-82
2022/08/18 04:14:46;;;;;;;15.67;11.70;;;23.20;93.30;;;;;;5055541;28;20634;-83
2022/08/18 04:17:23;;;;;;;18.80;11.57;;;23.20;93.20;;;;;;5051163;28;20525;-85
2022/08/18 04:19:52;;;;;;;17.67;11.90;;;23.20;93.10;;;;;;5065349;28;20202;-82
2022/08/18 04:22:20;;;;;;;14.70;12.07;;;23.20;93.20;;;;;;5054771;28;20302;-81
2022/08/18 04:24:49;;;;;;;15.50;11.57;;;23.30;93.10;;;;;;5041465;28;20229;-82
2022/08/18 04:27:20;;;;;;;13.47;11.93;;;23.40;93.00;;;;;;5048360;28;20289;-82
2022/08/18 04:29:48;;;;;;;14.13;12.13;;;23.40;92.90;;;;;;5034448;28;20237;-82
2022/08/18 04:32:15;;;;;;;16.13;12.40;;;23.40;92.90;;;;;;5052582;28;20294;-82
2022/08/18 04:34:43;;;;;;;14.80;12.33;;;23.50;92.90;;;;;;5035154;28;20218;-84
2022/08/18 04:37:14;;;;;;;13.90;12.40;;;23.50;92.90;;;;;;5039702;28;20199;-82
2022/08/18 04:39:43;;;;;;;20.03;13.80;;;23.60;92.90;;;;;;5050412;28;20513;-82
2022/08/18 04:42:11;;;;;;;20.67;11.87;;;23.60;92.90;;;;;;5071866;28;20218;-82
2022/08/18 04:44:39;;;;;;;17.10;12.80;;;23.60;92.80;;;;;;5057470;28;20210;-81
2022/08/18 04:47:08;;;;;;;17.80;12.93;;;23.70;92.70;;;;;;5050362;28;20206;-83
2022/08/18 04:49:36;;;;;;;15.10;13.53;;;23.70;92.50;;;;;;5058273;28;20254;-83
2022/08/18 04:55:07;;;;;;;15.70;13.83;;;23.70;92.30;;;;;;5050682;28;20211;-82
2022/08/18 04:57:36;;;;;;;16.47;14.60;;;23.70;92.30;;;;;;5052632;28;20194;-83
2022/08/18 05:00:05;;;;;;;15.23;13.73;;;23.70;92.40;;;;;;5053815;28;20238;-81
2022/08/18 05:02:33;;;;;;;19.80;14.33;;;23.70;92.50;;;;;;5055228;28;20203;-83
2022/08/18 05:05:02;;;;;;;22.90;17.33;;;23.70;92.60;;;;;;5059565;28;20206;-81
2022/08/18 05:07:30;;;;;;;19.93;17.83;;;23.70;92.60;;;;;;5056709;28;20198;-81
2022/08/18 05:09:57;;;;;;;19.93;17.47;;;23.70;92.60;;;;;;5049648;28;20211;-82
2022/08/18 05:12:24;;;;;;;19.77;16.83;;;23.70;92.70;;;;;;5069719;28;20291;-80
2022/08/18 05:14:55;;;;;;;20.30;16.23;;;23.70;92.80;;;;;;5063243;28;20189;-81
2022/08/18 05:17:27;;;;;;;18.07;15.93;;;23.70;92.80;;;;;;5063025;28;20229;-82
2022/08/18 05:19:58;;;;;;;18.37;14.77;;;23.70;92.70;;;;;;5044844;28;20203;-82
2022/08/18 05:22:28;;;;;;;14.67;13.10;;;23.70;92.70;;;;;;5033184;28;20238;-81
2022/08/18 05:24:57;;;;;;;19.23;15.10;;;23.70;92.70;;;;;;5059960;28;20207;-81
2022/08/18 05:27:29;;;;;;;13.33;11.73;;;23.70;92.60;;;;;;5053239;28;20203;-80
2022/08/18 05:29:56;;;;;;;15.50;13.47;;;23.70;92.60;;;;;;5046899;28;20215;-81
2022/08/18 05:32:23;;;;;;;15.03;13.53;;;23.70;92.60;;;;;;5051664;28;20221;-79
2022/08/18 05:35:22;;;;;;;17.27;12.93;;;23.70;92.60;;;;;;5051840;28;20187;-81
2022/08/18 05:38:06;;;;;;;14.83;12.23;;;23.70;92.60;;;;;;5056367;28;20233;-80
2022/08/18 05:40:34;;;;;;;15.20;12.53;;;23.70;92.60;;;;;;5053080;28;20202;-79
2022/08/18 05:43:03;;;;;;;16.10;12.17;;;23.80;92.70;;;;;;5064244;28;20209;-82
2022/08/18 05:45:33;;;;;;;13.13;11.80;;;23.80;92.50;;;;;;5049032;28;20214;-80
2022/08/18 05:48:01;;;;;;;12.20;11.03;;;23.80;92.60;;;;;;5053088;28;20222;-80
2022/08/18 05:50:33;;;;;;;16.67;12.13;;;23.80;92.70;;;;;;5053214;28;20222;-79
2022/08/18 05:53:13;;;;;;;13.00;11.80;;;23.80;92.60;;;;;;5054800;28;20210;-80
2022/08/18 05:58:51;;;;;;;14.00;11.03;;;23.80;92.50;;;;;;5051356;28;20199;-80
2022/08/18 06:01:29;;;;;;;15.63;11.13;;;23.80;92.50;;;;;;5056222;28;20218;-80
2022/08/18 06:04:05;;;;;;;11.93;10.73;;;23.80;92.40;;;;;;5056523;28;20256;-80
2022/08/18 06:06:35;;;;;;;13.93;11.37;;;23.80;92.40;;;;;;5053011;28;20198;-80
2022/08/18 06:09:21;;;;;;;14.93;11.27;;;23.90;92.30;;;;;;5056229;28;20222;-79
2022/08/18 06:11:48;;;;;;;16.53;11.57;;;23.90;92.30;;;;;;5049258;28;20216;-80
2022/08/18 06:14:16;;;;;;;14.80;11.67;;;23.90;92.20;;;;;;5045569;28;20254;-81
2022/08/18 06:17:02;;;;;;;13.63;11.43;;;23.90;92.20;;;;;;5051186;28;20618;-79
2022/08/18 06:19:35;;;;;;;13.67;12.27;;;24.00;92.30;;;;;;5049461;28;20608;-79
2022/08/18 06:22:12;;;;;;;13.57;12.23;;;24.00;92.40;;;;;;5037943;28;20233;-79
2022/08/18 06:24:58;;;;;;;14.97;13.37;;;24.00;92.50;;;;;;5053460;28;20206;-80
2022/08/18 06:27:54;;;;;;;14.50;12.07;;;24.00;92.60;;;;;;5053445;28;20199;-80
2022/08/18 06:30:31;;;;;;;13.30;12.00;;;24.10;92.70;;;;;;5051775;28;20199;-79
2022/08/18 06:33:40;;;;;;;17.23;12.53;;;24.10;92.60;;;;;;5052138;28;20215;-80
2022/08/18 06:36:32;;;;;;;13.27;11.93;;;24.20;92.60;;;;;;5032652;28;20207;-80
2022/08/18 06:39:18;;;;;;;14.10;11.37;;;24.30;92.50;;;;;;5068190;28;20640;-79
2022/08/18 06:41:48;;;;;;;15.17;11.70;;;24.30;92.50;;;;;;5047955;28;20297;-79
2022/08/18 06:44:58;;;;;;;13.80;10.67;;;24.40;92.40;;;;;;5033352;28;20221;-79
2022/08/18 06:47:46;;;;;;;16.23;10.87;;;24.40;92.40;;;;;;4974892;28;20317;-79
2022/08/18 06:50:25;;;;;;;13.20;11.07;;;24.50;92.40;;;;;;5049157;28;21274;-80
2022/08/18 06:53:02;;;;;;;16.00;10.13;;;24.50;92.30;;;;;;5053607;28;20205;-79
2022/08/18 06:55:41;;;;;;;12.17;10.17;;;24.50;91.90;;;;;;5042238;28;20198;-78
2022/08/18 06:58:14;;;;;;;12.13;10.77;;;24.50;91.80;;;;;;5046183;28;20577;-78
2022/08/18 07:01:03;;;;;;;12.03;9.70;;;24.60;91.70;;;;;;5053321;28;20201;-78
2022/08/18 07:03:34;;;;;;;17.50;10.40;;;24.50;91.70;;;;;;5049608;28;20667;-77
2022/08/18 07:06:29;;;;;;;11.83;9.70;;;24.50;91.70;;;;;;5055237;28;20210;-78
2022/08/18 07:09:20;;;;;;;9.77;8.77;;;24.40;91.80;;;;;;5058578;28;20230;-77
2022/08/18 07:12:07;;;;;;;12.87;8.97;;;24.30;91.50;;;;;;5054933;28;20559;-77
2022/08/18 07:14:47;;;;;;;12.07;9.53;;;24.20;91.70;;;;;;5050102;28;20198;-80
2022/08/18 07:17:29;;;;;;;12.37;9.33;;;24.00;91.70;;;;;;5061756;28;20233;-80
2022/08/18 07:20:24;;;;;;;15.03;9.73;;;23.90;92.00;;;;;;5045012;28;20513;-79
2022/08/18 07:23:03;;;;;;;10.37;9.27;;;23.90;92.30;;;;;;5059219;28;20211;-79
2022/08/18 07:25:41;;;;;;;9.20;8.30;;;23.90;92.30;;;;;;5038541;28;20276;-80
2022/08/18 07:28:30;;;;;;;12.53;8.97;;;23.90;92.30;;;;;;5053767;28;20206;-81
2022/08/18 07:31:14;;;;;;;14.30;9.17;;;23.90;92.50;;;;;;5048761;28;20632;-79
2022/08/18 07:33:52;;;;;;;15.77;8.93;;;23.80;92.30;;;;;;5051865;28;20199;-80
2022/08/18 07:36:23;;;;;;;13.77;9.33;;;23.80;92.40;;;;;;5049177;28;20604;-81
2022/08/18 07:39:14;;;;;;;10.03;9.03;;;23.80;92.50;;;;;;5058870;28;20554;-80
2022/08/18 07:41:51;;;;;;;13.80;8.93;;;24.00;93.00;;;;;;5056532;28;20213;-82
2022/08/18 07:44:35;;;;;;;13.27;8.60;;;24.20;92.90;;;;;;5069240;28;20267;-80
2022/08/18 07:47:11;;;;;;;12.17;9.27;;;24.30;92.40;;;;;;5049370;28;20233;-80
2022/08/18 07:49:41;;;;;;;13.43;8.60;;;24.30;91.90;;;;;;5057436;28;20288;-80
2022/08/18 07:52:35;;;;;;;10.57;9.37;;;24.30;91.80;;;;;;5050104;28;20540;-80
2022/08/18 07:55:28;;;;;;;11.87;9.33;;;24.30;91.90;;;;;;5056518;28;20202;-80
2022/08/18 07:58:20;;;;;;;12.73;8.93;;;24.30;92.20;;;;;;5051623;28;20696;-80
2022/08/18 08:01:04;;;;;;;12.33;9.13;;;24.30;92.20;;;;;;5055783;28;20203;-79
2022/08/18 08:04:11;;;;;;;12.77;9.47;;;24.30;92.30;;;;;;5062548;28;20214;-80
2022/08/18 08:07:19;;;;;;;9.30;8.03;;;24.40;92.40;;;;;;5064812;28;20330;-81
2022/08/18 08:10:01;;;;;;;10.50;8.47;;;24.60;92.00;;;;;;5051212;28;20231;-83
2022/08/18 08:12:38;;;;;;;9.60;6.87;;;24.60;91.70;;;;;;5057602;28;20257;-79
2022/08/18 08:15:26;;;;;;;11.20;7.00;;;24.70;91.70;;;;;;5059028;28;20207;-80
2022/08/18 08:18:22;;;;;;;8.60;7.10;;;24.70;91.40;;;;;;5058971;28;20225;-79
2022/08/18 08:21:09;;;;;;;7.43;6.63;;;24.80;91.40;;;;;;5048893;28;20298;-79
2022/08/18 08:24:07;;;;;;;8.43;6.27;;;24.80;91.20;;;;;;5047614;28;20215;-79
2022/08/18 08:27:18;;;;;;;9.60;7.20;;;24.80;91.00;;;;;;5055632;28;20209;-79
2022/08/18 08:29:56;;;;;;;9.07;7.40;;;24.80;91.10;;;;;;5068369;28;20296;-79
2022/08/18 08:32:29;;;;;;;9.27;7.00;;;24.80;91.50;;;;;;5051067;28;20196;-80
2022/08/18 08:35:04;;;;;;;9.40;7.13;;;24.80;91.60;;;;;;5038300;28;20293;-78
2022/08/18 08:37:56;;;;;;;9.00;7.13;;;24.80;91.50;;;;;;5058666;28;20202;-80
2022/08/18 08:40:36;;;;;;;12.27;8.23;;;24.80;91.40;;;;;;5050618;28;20302;-80
2022/08/18 08:43:17;;;;;;;10.77;8.43;;;24.80;91.40;;;;;;5053549;28;20213;-79
2022/08/18 08:45:59;;;;;;;11.47;8.33;;;24.80;91.40;;;;;;5053824;28;20229;-81
2022/08/18 08:48:31;;;;;;;8.97;7.43;;;24.70;91.50;;;;;;5056924;28;20702;-79
2022/08/18 08:51:01;;;;;;;11.07;8.43;;;24.60;91.40;;;;;;5053146;28;20223;-79
2022/08/18 08:53:33;;;;;;;10.27;8.37;;;24.60;91.60;;;;;;5053236;28;20316;-79
2022/08/18 08:56:13;;;;;;;6.63;5.40;;;24.60;91.80;;;;;;5063066;28;20230;-79
2022/08/18 08:58:46;;;;;;;6.50;4.67;;;24.50;91.40;;;;;;5038381;28;20209;-80
2022/08/18 09:01:29;;;;;;;9.70;4.10;;;24.50;90.60;;;;;;5054920;28;20201;-80
2022/08/18 09:04:21;;;;;;;5.17;3.63;;;24.30;90.30;;;;;;5055019;28;20268;-81
2022/08/18 09:07:00;;;;;;;5.77;4.00;;;24.20;90.00;;;;;;5049649;28;20278;-80
2022/08/18 09:09:30;;;;;;;8.07;3.77;;;24.10;90.10;;;;;;5054536;28;20686;-80
2022/08/18 09:12:33;;;;;;;5.73;3.83;;;24.00;90.40;;;;;;5057326;28;20221;-80
2022/08/18 09:15:23;;;;;;;8.70;3.90;;;24.00;90.50;;;;;;5044042;28;20198;-81
2022/08/18 09:18:00;;;;;;;10.10;4.13;;;23.90;90.90;;;;;;5053782;28;20560;-82
2022/08/18 09:20:50;;;;;;;15.47;4.67;;;23.90;91.20;;;;;;5053333;28;20207;-82
2022/08/18 09:23:39;;;;;;;12.07;4.30;;;23.90;91.50;;;;;;5039400;28;20309;-82
2022/08/18 09:26:45;;;;;;;6.93;4.47;;;23.80;91.30;;;;;;5051073;28;20206;-82
2022/08/18 09:29:21;;;;;;;7.97;3.83;;;23.80;91.10;;;;;;5054730;28;20221;-82
2022/08/18 09:32:17;;;;;;;10.73;4.00;;;23.70;91.30;;;;;;5042777;28;20203;-84
2022/08/18 09:35:10;;;;;;;8.63;4.30;;;23.60;91.30;;;;;;5046668;28;20213;-82
2022/08/18 09:44:19;;;;;;;15.60;5.00;;;23.50;92.30;;;;;;5049150;28;20221;-83
2022/08/18 09:46:54;;;;;;;9.27;4.83;;;23.50;92.50;;;;;;5005568;28;20279;-80
2022/08/18 09:49:26;;;;;;;14.73;6.13;;;23.50;92.60;;;;;;5022536;28;20226;-78
2022/08/18 09:51:56;;;;;;;10.73;5.50;;;23.50;92.70;;;;;;5055110;28;20289;-82
2022/08/18 09:54:32;;;;;;;18.90;6.33;;;23.50;92.70;;;;;;5047902;28;20210;-77
2022/08/18 09:57:23;;;;;;;13.10;6.50;;;23.50;92.70;;;;;;5054084;28;20226;-78
2022/08/18 09:59:57;;;;;;;12.50;7.13;;;23.50;92.70;;;;;;5055642;28;20659;-78
2022/08/18 10:02:28;;;;;;;12.27;6.43;;;23.40;92.80;;;;;;5053422;28;20205;-78
2022/08/18 10:05:18;;;;;;;11.10;6.47;;;23.30;93.10;;;;;;5035816;28;20645;-77
2022/08/18 10:08:06;;;;;;;8.80;5.67;;;23.20;93.30;;;;;;5049802;28;20233;-79
2022/08/18 10:10:43;;;;;;;6.23;4.40;;;23.10;93.50;;;;;;5053511;28;20245;-79
2022/08/18 10:14:04;;;;;;;7.87;4.87;;;22.90;93.60;;;;;;5053323;28;20234;-83
2022/08/18 10:16:35;;;;;;;5.93;4.40;;;22.70;94.50;;;;;;5045332;28;20202;-79
2022/08/18 10:19:49;;;;;;;6.67;3.60;;;22.70;94.90;;;;;;5037315;28;20203;-82
2022/08/18 10:22:42;;;;;;;6.57;3.93;;;22.70;95.30;;;;;;5047976;28;20386;-83
2022/08/18 10:25:13;;;;;;;4.00;3.70;;;22.70;95.40;;;;;;5055243;28;20244;-83
2022/08/18 10:28:04;;;;;;;5.63;4.07;;;22.80;95.40;;;;;;5041292;28;20297;-83
2022/08/18 10:30:34;;;;;;;6.23;4.30;;;22.90;95.50;;;;;;5037963;28;20253;-82
2022/08/18 10:33:55;;;;;;;9.20;4.80;;;22.90;95.50;;;;;;5046779;28;20199;-84
2022/08/18 10:36:38;;;;;;;6.83;4.50;;;23.00;95.40;;;;;;5052701;28;20191;-80
2022/08/18 10:39:16;;;;;;;7.70;3.20;;;23.10;95.40;;;;;;5058994;28;20229;-81
2022/08/18 10:42:13;;;;;;;3.53;2.50;;;23.10;95.20;;;;;;5031213;28;20588;-84
2022/08/18 10:44:44;;;;;;;5.03;2.87;;;23.20;95.00;;;;;;5047875;28;20275;-81
2022/08/18 10:47:26;;;;;;;5.83;2.77;;;23.20;94.50;;;;;;5049596;28;20228;-81
2022/08/18 10:50:04;;;;;;;4.27;2.27;;;23.20;94.10;;;;;;5040461;28;20566;-83
2022/08/18 10:53:12;;;;;;;4.60;2.50;;;23.20;93.60;;;;;;5064150;28;20222;-83
2022/08/18 10:56:27;;;;;;;9.83;2.30;;;23.30;93.30;;;;;;5069101;28;20194;-77
2022/08/18 10:59:06;;;;;;;4.03;3.13;;;23.30;93.10;;;;;;5055332;28;20198;-83
2022/08/18 11:01:45;;;;;;;5.13;2.10;;;23.40;92.70;;;;;;5051598;28;20233;-82
2022/08/18 11:04:48;;;;;;;5.87;2.47;;;23.50;92.30;;;;;;5063266;28;20227;-83
2022/08/18 11:07:30;;;;;;;5.20;1.63;;;23.60;91.90;;;;;;5054415;28;20229;-82
2022/08/18 11:10:15;;;;;;;4.17;1.83;;;23.80;91.50;;;;;;5054291;28;20214;-81
2022/08/18 11:13:36;;;;;;;10.40;2.27;;;24.00;90.90;;;;;;5050275;28;20234;-81
2022/08/18 11:16:20;;;;;;;9.57;2.13;;;24.20;90.40;;;;;;5028929;28;20643;-80
2022/08/18 11:19:02;;;;;;;7.67;2.57;;;24.50;88.20;;;;;;5050476;28;20193;-79
2022/08/18 11:21:37;;;;;;;9.20;2.37;;;24.60;87.30;;;;;;5053687;28;20230;-80
2022/08/18 11:24:12;;;;;;;8.23;2.50;;;24.80;87.00;;;;;;5054800;28;20202;-80
2022/08/18 11:26:48;;;;;;;5.93;2.77;;;25.10;87.40;;;;;;5055670;28;20202;-82
2022/08/18 11:29:45;;;;;;;6.07;2.60;;;25.30;86.90;;;;;;5053851;28;20199;-82
2022/08/18 11:32:39;;;;;;;6.23;1.73;;;25.60;84.50;;;;;;5056923;28;20242;-81
2022/08/18 11:35:23;;;;;;;8.43;3.00;;;25.70;84.80;;;;;;5051965;28;20205;-82
2022/08/18 11:37:55;;;;;;;9.47;2.27;;;25.80;84.40;;;;;;5055900;28;20235;-81
2022/08/18 11:40:27;;;;;;;6.53;2.00;;;25.80;84.60;;;;;;5044466;28;20208;-82
2022/08/18 11:43:34;;;;;;;10.63;2.57;;;25.90;84.20;;;;;;5033223;28;20203;-81
2022/08/18 11:46:24;;;;;;;3.27;1.83;;;25.90;83.20;;;;;;5046879;28;20211;-82
2022/08/18 11:49:00;;;;;;;6.33;2.07;;;26.00;83.10;;;;;;5036697;28;20215;-83
2022/08/18 11:51:32;;;;;;;4.93;2.17;;;26.10;83.30;;;;;;5067904;28;20231;-82
2022/08/18 11:54:14;;;;;;;7.70;2.20;;;26.20;83.00;;;;;;5052874;28;20226;-83
2022/08/18 11:56:43;;;;;;;5.60;2.13;;;26.30;82.40;;;;;;5056105;28;20288;-83
2022/08/18 11:59:25;;;;;;;5.70;1.60;;;26.40;82.10;;;;;;5057464;28;20231;-82
2022/08/18 12:02:17;;;;;;;5.33;1.70;;;26.50;81.10;;;;;;5040784;28;20321;-82
2022/08/18 12:04:51;;;;;;;6.40;1.80;;;26.60;79.40;;;;;;5049849;28;20609;-83
2022/08/18 12:07:34;;;;;;;9.37;1.63;;;26.70;77.50;;;;;;5057989;28;20209;-81
2022/08/18 12:10:21;;;;;;;5.07;1.87;;;26.80;77.00;;;;;;5067308;28;20313;-81
2022/08/18 12:12:58;;;;;;;2.63;1.60;;;26.80;76.70;;;;;;5052381;28;20246;-82
2022/08/18 12:15:35;;;;;;;8.07;1.93;;;26.90;75.90;;;;;;5066077;28;20225;-82
2022/08/18 12:18:10;;;;;;;2.80;1.40;;;27.10;74.70;;;;;;5055567;28;20202;-83
2022/08/18 12:20:56;;;;;;;5.17;1.67;;;27.30;73.50;;;;;;5051972;28;20216;-83
2022/08/18 12:23:24;;;;;;;1.57;1.00;;;27.40;72.80;;;;;;5054965;28;20221;-80
2022/08/18 12:25:52;;;;;;;3.73;1.50;;;27.50;71.90;;;;;;5040097;28;20293;-83
2022/08/18 12:28:20;;;;;;;5.37;1.77;;;27.70;71.80;;;;;;5056290;28;20216;-82
2022/08/18 12:30:49;;;;;;;3.37;1.53;;;27.80;71.00;;;;;;5038416;28;20260;-82
2022/08/18 12:33:23;;;;;;;3.17;1.23;;;27.90;70.10;;;;;;5040137;28;20198;-82
2022/08/18 12:36:11;;;;;;;4.80;1.50;;;28.00;69.30;;;;;;5042152;28;20208;-82
2022/08/18 12:38:42;;;;;;;3.90;1.50;;;28.20;70.30;;;;;;5057289;28;20237;-81
2022/08/18 12:41:10;;;;;;;2.63;1.83;;;28.40;71.30;;;;;;5054363;28;20209;-81
2022/08/18 12:43:38;;;;;;;2.27;1.50;;;28.60;70.50;;;;;;5052324;28;20751;-78
2022/08/18 12:46:09;;;;;;;2.93;1.67;;;28.80;69.60;;;;;;5068007;28;20206;-82
2022/08/18 12:48:38;;;;;;;4.37;1.30;;;29.00;68.80;;;;;;5056361;28;20232;-81
2022/08/18 12:51:07;;;;;;;2.80;1.47;;;29.20;68.70;;;;;;5039942;28;20226;-82
2022/08/18 12:53:36;;;;;;;3.13;1.57;;;29.30;67.90;;;;;;5056406;28;20274;-83
2022/08/18 12:56:28;;;;;;;3.83;1.60;;;29.40;67.10;;;;;;5049559;28;20209;-82
2022/08/18 12:58:59;;;;;;;4.40;1.57;;;29.60;66.90;;;;;;5056394;28;20195;-82
2022/08/18 13:01:31;;;;;;;3.90;1.23;;;29.70;66.50;;;;;;5052472;28;20639;-80
2022/08/18 13:04:00;;;;;;;4.60;1.80;;;29.70;66.30;;;;;;5043860;28;20199;-83
2022/08/18 13:06:54;;;;;;;4.03;1.40;;;29.80;65.70;;;;;;5053379;28;20221;-80
2022/08/18 13:09:32;;;;;;;5.23;1.70;;;29.90;64.40;;;;;;5055633;28;20203;-81
2022/08/18 13:12:19;;;;;;;4.43;1.60;;;30.00;64.10;;;;;;5056443;28;20214;-81
2022/08/18 13:14:48;;;;;;;4.27;1.10;;;29.90;63.80;;;;;;5037372;28;20226;-81
2022/08/18 13:17:18;;;;;;;3.40;1.57;;;29.70;64.40;;;;;;5036479;28;20239;-84
2022/08/18 13:20:03;;;;;;;6.50;1.57;;;29.60;64.00;;;;;;5048966;28;20203;-81
2022/08/18 13:22:31;;;;;;;3.63;1.23;;;29.40;64.90;;;;;;5061728;28;20264;-82
2022/08/18 13:25:05;;;;;;;3.37;1.77;;;29.30;64.90;;;;;;5047968;28;20238;-81
2022/08/18 13:27:35;;;;;;;5.27;1.47;;;29.10;64.40;;;;;;5036177;28;20607;-81
2022/08/18 13:30:08;;;;;;;3.20;1.60;;;28.90;64.50;;;;;;5064549;28;20321;-81
2022/08/18 13:32:55;;;;;;;5.50;1.50;;;28.80;65.60;;;;;;5044619;28;20268;-80
2022/08/18 13:35:25;;;;;;;2.83;1.50;;;28.80;65.20;;;;;;5050134;28;20197;-80
2022/08/18 13:38:05;;;;;;;3.07;1.37;;;28.90;64.90;;;;;;5058949;28;20199;-81
2022/08/18 13:40:49;;;;;;;3.23;1.50;;;28.90;65.20;;;;;;5072247;28;20206;-83
2022/08/18 13:43:21;;;;;;;3.03;1.23;;;29.00;64.20;;;;;;5057299;28;20282;-80
2022/08/18 13:45:49;;;;;;;4.33;1.57;;;29.10;64.20;;;;;;5041529;28;20206;-82
2022/08/18 13:48:21;;;;;;;2.83;1.63;;;29.40;64.10;;;;;;5049079;28;20198;-82